Time;durP1;ratioP1;P1;durP2;ratioP2;P2;SDS_P1;SDS_P2;PMS_P1;PMS_P2;Temp;Humidity;BMP_temperature;BMP_pressure;BME280_temperature;BME280_humidity;BME280_pressure;Samples;Min_cycle;Max_cycle;Signal;HPM_P1;HPM_P2
2020/12/21 00:02:21;;;;;;;274.27;122.35;;;;;;;-4.09;84.90;99021.97;1776618;80;20892;-78
2020/12/21 00:04:47;;;;;;;280.15;121.35;;;;;;;-4.20;84.31;99028.37;1776457;79;21194;-78
2020/12/21 00:07:13;;;;;;;248.78;117.05;;;;;;;-4.16;84.55;99029.72;1776499;80;20893;-83
2020/12/21 00:09:39;;;;;;;241.90;109.72;;;;;;;-4.18;84.98;99029.05;1776525;79;20987;-83
2020/12/21 00:12:05;;;;;;;234.50;104.83;;;;;;;-4.17;84.76;99033.86;1776506;80;20940;-83
2020/12/21 00:14:31;;;;;;;224.85;102.40;;;;;;;-4.17;84.72;99038.66;1739216;80;20985;-78
2020/12/21 00:16:57;;;;;;;217.47;100.65;;;;;;;-4.24;84.60;99038.95;1736957;80;21199;-84
2020/12/21 00:19:23;;;;;;;232.27;102.95;;;;;;;-4.23;84.94;99039.78;1776487;80;21003;-83
2020/12/21 00:21:51;;;;;;;228.67;104.25;;;;;;;-4.27;84.64;99045.41;1746285;80;21158;-78
2020/12/21 00:24:17;;;;;;;216.23;100.30;;;;;;;-4.27;84.57;99049.88;1776665;80;21110;-79
2020/12/21 00:26:47;;;;;;;229.60;103.20;;;;;;;-4.25;84.88;99059.80;1776437;79;21109;-78
2020/12/21 00:29:14;;;;;;;213.57;102.45;;;;;;;-4.20;84.89;99055.33;1776532;80;21445;-83
2020/12/21 00:31:39;;;;;;;235.48;101.30;;;;;;;-4.23;84.32;99060.46;1776378;79;21090;-83
2020/12/21 00:34:07;;;;;;;229.97;101.35;;;;;;;-4.17;84.84;99061.16;1776480;80;20916;-78
2020/12/21 00:36:39;;;;;;;203.58;98.00;;;;;;;-4.15;84.61;99069.75;1776537;79;21026;-78
2020/12/21 00:39:05;;;;;;;220.42;100.22;;;;;;;-4.21;84.33;99060.30;1775427;80;21031;-78
2020/12/21 00:41:31;;;;;;;223.72;96.45;;;;;;;-4.26;84.36;99074.86;1776488;79;21368;-79
2020/12/21 00:44:00;;;;;;;204.07;92.12;;;;;;;-4.26;84.22;99072.70;1776468;80;20933;-83
2020/12/21 00:46:27;;;;;;;192.30;90.70;;;;;;;-4.26;84.53;99072.70;1776668;79;21477;-78
2020/12/21 00:48:54;;;;;;;214.82;97.62;;;;;;;-4.32;84.66;99073.33;1776388;80;21209;-78
2020/12/21 00:51:20;;;;;;;213.10;101.67;;;;;;;-4.39;84.47;99078.92;1746088;80;21114;-78
2020/12/21 00:53:46;;;;;;;212.88;98.58;;;;;;;-4.40;84.58;99085.20;1776413;80;21877;-78
2020/12/21 00:56:12;;;;;;;221.03;105.00;;;;;;;-4.37;84.81;99081.73;1746278;80;21114;-83
2020/12/21 00:58:42;;;;;;;223.60;103.55;;;;;;;-4.28;85.00;99085.24;1776538;80;21736;-78
2020/12/21 01:01:10;;;;;;;198.95;95.15;;;;;;;-4.36;84.13;99086.53;1776471;79;21043;-79
2020/12/21 01:03:37;;;;;;;207.40;92.25;;;;;;;-4.31;84.59;99081.60;1776644;80;21095;-84
2020/12/21 01:06:04;;;;;;;207.10;97.07;;;;;;;-4.32;84.53;99085.24;1776394;79;21367;-79
2020/12/21 01:08:30;;;;;;;221.90;97.78;;;;;;;-4.39;83.79;99082.89;1776513;80;21546;-83
2020/12/21 01:10:56;;;;;;;191.62;91.80;;;;;;;-4.34;84.46;99074.82;1746093;80;21150;-83
2020/12/21 01:13:22;;;;;;;191.80;89.75;;;;;;;-4.34;84.18;99077.47;1776497;80;20884;-79
2020/12/21 01:15:48;;;;;;;194.13;84.77;;;;;;;-4.36;84.08;99070.65;1776471;79;21013;-83
2020/12/21 01:18:14;;;;;;;174.77;74.65;;;;;;;-4.43;84.00;99075.77;1776534;80;21184;-78
2020/12/21 01:20:41;;;;;;;173.38;82.72;;;;;;;-4.40;84.10;99078.09;1776473;79;20991;-79
2020/12/21 01:23:07;;;;;;;178.05;78.55;;;;;;;-4.44;83.41;99079.88;1746264;80;21182;-79
2020/12/21 01:25:33;;;;;;;150.68;71.97;;;;;;;-4.55;82.88;99079.17;1776420;79;20980;-83
2020/12/21 01:27:59;;;;;;;152.93;68.50;;;;;;;-4.56;82.90;99080.16;1776557;80;21682;-79
2020/12/21 01:30:24;;;;;;;141.40;64.75;;;;;;;-4.56;83.50;99084.63;1776452;79;22289;-79
2020/12/21 01:32:50;;;;;;;120.97;60.67;;;;;;;-4.54;83.59;99083.47;1776427;80;21405;-83
2020/12/21 01:35:17;;;;;;;131.50;59.33;;;;;;;-4.58;83.44;99082.64;1776388;79;21014;-79
2020/12/21 01:37:43;;;;;;;136.00;63.85;;;;;;;-4.63;83.32;99081.77;1776486;80;21170;-84
2020/12/21 01:40:10;;;;;;;138.12;64.07;;;;;;;-4.64;83.56;99075.32;1776511;79;20920;-83
2020/12/21 01:42:36;;;;;;;129.82;61.92;;;;;;;-4.68;83.56;99076.14;1776498;80;21103;-82
2020/12/21 01:45:06;;;;;;;135.90;65.80;;;;;;;-4.63;84.14;99079.13;1776418;79;21099;-79
2020/12/21 01:47:31;;;;;;;160.15;67.17;;;;;;;-4.54;84.76;99075.53;1776509;80;21154;-83
2020/12/21 01:49:57;;;;;;;141.22;64.90;;;;;;;-4.49;84.39;99074.25;1776399;79;20897;-83
2020/12/21 01:52:23;;;;;;;143.80;68.37;;;;;;;-4.50;84.47;99068.63;1746229;80;21034;-78
2020/12/21 01:54:50;;;;;;;146.32;65.83;;;;;;;-4.48;84.30;99067.47;1746137;79;21333;-83
2020/12/21 01:57:16;;;;;;;143.40;64.90;;;;;;;-4.41;84.49;99074.28;1776503;80;21119;-79
2020/12/21 01:59:42;;;;;;;160.10;75.12;;;;;;;-4.35;84.56;99073.66;1776491;79;21099;-83
2020/12/21 02:02:09;;;;;;;158.90;74.45;;;;;;;-4.34;84.10;99078.79;1776603;80;20932;-83
2020/12/21 02:04:35;;;;;;;139.68;63.92;;;;;;;-4.36;83.89;99073.30;1776403;79;21020;-83
2020/12/21 02:07:01;;;;;;;144.07;67.95;;;;;;;-4.38;83.63;99081.89;1776455;80;22074;-79
2020/12/21 02:09:27;;;;;;;151.18;70.67;;;;;;;-4.40;83.92;99072.80;1710934;80;21292;-78
2020/12/21 02:11:53;;;;;;;140.40;64.25;;;;;;;-4.54;83.40;99068.92;1776529;79;21019;-83
2020/12/21 02:14:19;;;;;;;135.90;62.10;;;;;;;-4.58;83.20;99070.73;1776305;80;21098;-83
2020/12/21 02:16:45;;;;;;;147.90;66.33;;;;;;;-4.58;83.56;99076.02;1746384;80;20884;-78
2020/12/21 02:19:11;;;;;;;135.30;58.28;;;;;;;-4.62;83.51;99074.16;1745913;80;21596;-83
2020/12/21 02:21:37;;;;;;;131.27;63.20;;;;;;;-4.60;83.73;99079.33;1700095;80;20924;-82
2020/12/21 02:24:03;;;;;;;129.47;56.23;;;;;;;-4.58;83.80;99079.50;1746337;80;21640;-79
2020/12/21 02:26:29;;;;;;;130.45;60.23;;;;;;;-4.67;83.34;99084.41;1776349;79;21150;-83
2020/12/21 02:28:56;;;;;;;120.87;54.90;;;;;;;-4.69;83.60;99079.77;1776491;80;20987;-79
2020/12/21 02:31:22;;;;;;;127.85;58.17;;;;;;;-4.68;83.71;99081.92;1776419;79;21158;-79
2020/12/21 02:33:48;;;;;;;130.57;60.78;;;;;;;-4.74;83.54;99085.19;1776416;80;21221;-79
2020/12/21 02:36:14;;;;;;;129.27;60.50;;;;;;;-4.77;83.72;99089.48;1776441;79;20951;-79
2020/12/21 02:38:40;;;;;;;137.05;58.87;;;;;;;-4.80;83.54;99087.13;1776507;80;20924;-79
2020/12/21 02:41:07;;;;;;;136.35;57.60;;;;;;;-4.78;84.12;99087.33;1739298;80;21036;-79
2020/12/21 02:43:33;;;;;;;123.25;54.95;;;;;;;-4.78;83.83;99083.36;1776463;80;21674;-79
2020/12/21 02:45:58;;;;;;;136.35;57.95;;;;;;;-4.78;83.85;99090.47;1776364;79;20976;-79
2020/12/21 02:48:24;;;;;;;126.85;53.23;;;;;;;-4.82;83.86;99088.61;1776509;80;21841;-79
2020/12/21 02:50:50;;;;;;;122.30;56.68;;;;;;;-4.82;83.78;99092.58;1776442;79;20920;-83
2020/12/21 02:53:16;;;;;;;125.67;57.88;;;;;;;-4.82;83.61;99093.89;1776481;80;20985;-83
2020/12/21 02:55:43;;;;;;;121.15;53.02;;;;;;;-4.88;83.79;99085.25;1776402;79;21168;-83
2020/12/21 02:58:10;;;;;;;111.65;50.65;;;;;;;-4.85;83.75;99088.93;1776423;80;21130;-79
2020/12/21 03:00:36;;;;;;;114.55;55.75;;;;;;;-4.82;83.62;99097.37;1776393;79;21139;-82
2020/12/21 03:03:05;;;;;;;114.70;53.30;;;;;;;-4.83;83.98;99094.88;1776459;80;21090;-83
2020/12/21 03:05:32;;;;;;;115.10;54.58;;;;;;;-4.80;83.94;99093.73;1776475;79;21102;-78
2020/12/21 03:07:58;;;;;;;112.45;50.35;;;;;;;-4.71;84.33;99093.63;1776478;80;21187;-80
2020/12/21 03:10:24;;;;;;;115.20;54.33;;;;;;;-4.69;83.56;99101.43;1776309;79;21023;-82
2020/12/21 03:12:51;;;;;;;115.88;51.83;;;;;;;-4.74;83.04;99098.41;1776471;80;21150;-78
2020/12/21 03:15:17;;;;;;;110.75;46.08;;;;;;;-4.79;82.33;99099.36;1776229;79;21523;-79
2020/12/21 03:17:43;;;;;;;100.22;50.38;;;;;;;-4.85;82.99;99099.50;1776499;80;21311;-83
2020/12/21 03:20:09;;;;;;;115.37;51.48;;;;;;;-4.92;83.11;99095.33;1776462;79;21602;-82
2020/12/21 03:22:35;;;;;;;94.92;45.12;;;;;;;-4.91;83.13;99103.59;1776500;80;20853;-83
2020/12/21 03:25:00;;;;;;;100.20;46.55;;;;;;;-4.90;83.28;99092.03;1776494;79;20877;-83
2020/12/21 03:27:27;;;;;;;97.27;43.05;;;;;;;-4.91;83.06;99096.98;1776565;80;20932;-83
2020/12/21 03:29:53;;;;;;;95.32;42.55;;;;;;;-4.92;83.60;99095.33;1776550;79;21182;-79
2020/12/21 03:32:19;;;;;;;90.60;39.38;;;;;;;-4.89;83.58;99096.33;1776674;80;21254;-83
2020/12/21 03:34:45;;;;;;;84.25;40.40;;;;;;;-4.88;84.17;99092.69;1776551;79;20936;-83
2020/12/21 03:37:11;;;;;;;88.67;42.17;;;;;;;-4.83;84.21;99090.42;1737077;80;20932;-79
2020/12/21 03:39:37;;;;;;;86.53;42.98;;;;;;;-4.80;84.42;99091.09;1776556;79;21877;-79
2020/12/21 03:42:03;;;;;;;79.42;40.12;;;;;;;-4.76;83.94;99093.28;1776708;80;20914;-83
2020/12/21 03:44:29;;;;;;;89.35;39.92;;;;;;;-4.79;83.76;99092.75;1776722;80;21085;-82
2020/12/21 03:46:55;;;;;;;95.30;43.02;;;;;;;-4.79;83.78;99097.54;1776503;79;21070;-83
2020/12/21 03:49:21;;;;;;;90.17;42.00;;;;;;;-4.71;83.85;99090.16;1739401;80;21891;-83
2020/12/21 03:51:47;;;;;;;88.97;39.23;;;;;;;-4.69;83.81;99087.70;1739505;80;21059;-79
2020/12/21 03:54:13;;;;;;;84.70;37.65;;;;;;;-4.68;83.64;99089.86;1776565;80;21086;-79
2020/12/21 03:56:43;;;;;;;94.37;41.42;;;;;;;-4.72;83.59;99084.03;1776514;79;21251;-83
2020/12/21 03:59:10;;;;;;;93.27;40.73;;;;;;;-4.70;83.42;99084.73;1746114;80;21135;-82
2020/12/21 04:01:37;;;;;;;89.37;44.23;;;;;;;-4.70;83.45;99081.23;1736998;80;21038;-83
2020/12/21 04:04:06;;;;;;;91.75;42.70;;;;;;;-4.63;83.75;99080.94;1776576;80;21646;-83
2020/12/21 04:06:32;;;;;;;103.25;45.65;;;;;;;-4.66;83.19;99086.06;1746096;80;21102;-82
2020/12/21 04:08:58;;;;;;;92.57;43.60;;;;;;;-4.62;83.40;99086.07;1776583;80;21335;-77
2020/12/21 04:11:24;;;;;;;98.85;41.90;;;;;;;-4.65;83.04;99080.28;1776451;79;21019;-82
2020/12/21 04:13:50;;;;;;;91.32;43.05;;;;;;;-4.57;83.34;99082.97;1776571;80;20912;-77
2020/12/21 04:16:16;;;;;;;95.35;43.17;;;;;;;-4.62;83.46;99080.78;1776387;79;21055;-79
2020/12/21 04:18:42;;;;;;;80.15;37.28;;;;;;;-4.52;84.08;99079.87;1776598;80;21166;-78
2020/12/21 04:21:13;;;;;;;84.62;37.50;;;;;;;-4.43;84.21;99086.36;1776498;79;21098;-82
2020/12/21 04:23:39;;;;;;;98.33;47.58;;;;;;;-4.31;84.09;99085.57;1776136;80;21189;-83
2020/12/21 04:26:05;;;;;;;108.72;45.92;;;;;;;-4.20;84.59;99093.72;1776537;79;21475;-79
2020/12/21 04:28:32;;;;;;;79.00;40.60;;;;;;;-4.09;84.42;99090.30;1776557;80;20912;-78
2020/12/21 04:31:03;;;;;;;157.72;63.35;;;;;;;-4.04;84.19;99091.12;1776551;79;21035;-78
2020/12/21 04:33:29;;;;;;;146.13;69.40;;;;;;;-4.01;84.55;99090.83;1775353;80;21259;-82
2020/12/21 04:35:55;;;;;;;117.15;50.10;;;;;;;-3.94;84.31;99091.81;1776477;79;21649;-79
2020/12/21 04:38:21;;;;;;;100.82;45.08;;;;;;;-3.84;84.38;99089.89;1776567;80;21412;-78
2020/12/21 04:40:56;;;;;;;88.90;41.00;;;;;;;-3.76;84.34;99090.38;1776430;79;21456;-83
2020/12/21 04:43:23;;;;;;;76.85;35.98;;;;;;;-3.72;84.24;99099.67;1774817;80;21757;-78
2020/12/21 04:45:54;;;;;;;71.57;33.33;;;;;;;-3.64;84.26;99102.84;1746429;80;21215;-82
2020/12/21 04:48:22;;;;;;;63.92;28.80;;;;;;;-3.59;84.29;99104.48;1776532;80;21151;-79
2020/12/21 04:50:55;;;;;;;73.70;34.73;;;;;;;-3.53;84.21;99108.64;1776439;79;21154;-79
2020/12/21 04:53:21;;;;;;;69.80;33.63;;;;;;;-3.51;84.22;99109.80;1776568;80;21150;-79
2020/12/21 04:55:48;;;;;;;70.28;33.88;;;;;;;-3.48;84.19;99105.02;1776571;79;21036;-78
2020/12/21 04:58:14;;;;;;;79.58;38.98;;;;;;;-3.50;84.18;99096.41;1776499;80;21603;-82
2020/12/21 05:00:40;;;;;;;67.22;35.35;;;;;;;-3.49;84.32;99098.56;1776334;79;20916;-79
2020/12/21 05:03:07;;;;;;;78.30;37.38;;;;;;;-3.45;84.15;99089.27;1739444;80;21484;-83
2020/12/21 05:05:41;;;;;;;73.17;36.00;;;;;;;-3.46;84.08;99091.09;1776482;79;21460;-79
2020/12/21 05:08:15;;;;;;;74.80;37.20;;;;;;;-3.46;84.10;99100.38;1776526;80;21134;-83
2020/12/21 05:10:45;;;;;;;67.85;35.33;;;;;;;-3.46;84.81;99100.88;1747337;80;21186;-82
2020/12/21 05:13:12;;;;;;;66.45;36.03;;;;;;;-3.46;85.05;99103.52;1776560;80;21142;-82
2020/12/21 05:15:38;;;;;;;69.17;36.88;;;;;;;-3.39;85.42;99093.10;1776379;79;21182;-81
2020/12/21 05:18:09;;;;;;;77.30;39.00;;;;;;;-3.32;85.33;99096.75;1776541;80;20951;-78
2020/12/21 05:20:38;;;;;;;74.95;36.13;;;;;;;-3.28;85.11;99092.77;1746058;80;21059;-82
2020/12/21 05:23:06;;;;;;;75.42;38.15;;;;;;;-3.28;85.03;99099.39;1775672;80;21864;-82
2020/12/21 05:25:33;;;;;;;66.95;36.75;;;;;;;-3.24;85.03;99098.91;1776516;79;21467;-79
2020/12/21 05:28:14;;;;;;;73.52;36.73;;;;;;;-3.31;85.57;99097.08;1776473;80;21194;-79
2020/12/21 05:30:57;;;;;;;68.15;35.68;;;;;;;-3.25;85.42;99105.18;1745906;80;21146;-78
2020/12/21 05:33:23;;;;;;;71.22;34.10;;;;;;;-3.26;85.59;99112.80;1776636;80;21098;-83
2020/12/21 05:35:49;;;;;;;71.87;34.48;;;;;;;-3.17;85.43;99114.47;1776440;79;21080;-82
2020/12/21 05:38:21;;;;;;;73.00;34.73;;;;;;;-3.12;85.23;99113.98;1729220;80;21676;-83
2020/12/21 05:40:47;;;;;;;65.32;30.43;;;;;;;-3.11;85.40;99109.01;1775559;79;21055;-82
2020/12/21 05:43:28;;;;;;;83.10;40.05;;;;;;;-3.05;85.00;99112.33;1776462;80;21650;-82
2020/12/21 05:46:10;;;;;;;178.40;75.25;;;;;;;-3.02;86.17;99113.31;1775828;79;21091;-77
2020/12/21 05:48:42;;;;;;;135.70;77.60;;;;;;;-2.95;86.29;99111.66;1775865;80;21221;-83
2020/12/21 05:51:10;;;;;;;71.92;40.70;;;;;;;-2.85;86.38;99114.13;1775278;79;21162;-78
2020/12/21 05:53:42;;;;;;;65.87;32.58;;;;;;;-2.77;85.57;99111.47;1776427;80;21079;-82
2020/12/21 05:56:08;;;;;;;72.70;32.98;;;;;;;-2.75;86.07;99105.49;1775716;79;21066;-81
2020/12/21 05:58:36;;;;;;;61.73;33.55;;;;;;;-2.69;86.23;99102.67;1776471;80;20996;-82
2020/12/21 06:01:09;;;;;;;62.65;29.87;;;;;;;-2.65;86.08;99106.63;1776430;79;21106;-78
2020/12/21 06:03:39;;;;;;;70.67;33.78;;;;;;;-2.62;85.52;99108.47;1775655;80;21110;-82
2020/12/21 06:06:21;;;;;;;72.87;35.68;;;;;;;-2.63;85.95;99105.99;1737364;80;21031;-79
2020/12/21 06:08:49;;;;;;;70.47;36.70;;;;;;;-2.64;86.20;99106.99;1776534;80;21563;-78
2020/12/21 06:11:23;;;;;;;72.35;37.95;;;;;;;-2.57;85.98;99107.95;1746718;80;21007;-79
2020/12/21 06:14:12;;;;;;;90.70;43.98;;;;;;;-2.48;86.03;99107.42;1776575;80;21881;-83
2020/12/21 06:16:39;;;;;;;77.65;34.70;;;;;;;-2.36;85.69;99109.56;1775358;79;21201;-82
2020/12/21 06:19:12;;;;;;;90.22;46.10;;;;;;;-2.33;85.32;99111.05;1776569;80;21170;-78
2020/12/21 06:21:53;;;;;;;82.47;39.55;;;;;;;-2.35;85.76;99115.70;1776457;79;21622;-78
2020/12/21 06:24:22;;;;;;;74.90;40.12;;;;;;;-2.28;86.16;99117.50;1776552;80;21166;-81
2020/12/21 06:26:48;;;;;;;82.10;40.83;;;;;;;-2.21;85.84;99120.81;1776575;79;21339;-78
2020/12/21 06:29:17;;;;;;;66.95;37.98;;;;;;;-2.19;85.78;99124.95;1750664;80;21352;-78
2020/12/21 06:31:51;;;;;;;;;;;;;;;-2.15;85.69;99118.28;1749545;80;21034;-78
2020/12/21 06:34:31;;;;;;;78.15;37.45;;;;;;;-2.10;85.91;99121.26;1776427;80;20275;-79
2020/12/21 06:37:22;;;;;;;73.67;40.73;;;;;;;-2.09;85.91;99126.89;1775867;80;21035;-79
2020/12/21 06:39:45;;;;;;;68.47;35.88;;;;;;;-2.06;85.48;99127.05;1775338;79;21516;-82
2020/12/21 06:42:13;;;;;;;72.03;37.48;;;;;;;-2.08;85.46;99121.08;1746113;80;20928;-82
2020/12/21 06:44:40;;;;;;;73.33;39.35;;;;;;;-2.08;85.73;99123.73;1776458;79;21182;-77
2020/12/21 06:47:07;;;;;;;81.72;36.80;;;;;;;-2.04;85.87;99132.53;1776471;80;21464;-82
2020/12/21 06:49:37;;;;;;;99.55;47.58;;;;;;;-1.94;86.00;99132.83;1776424;80;21233;-78
2020/12/21 06:52:00;;;;;;;75.35;38.35;;;;;;;-1.83;86.16;99131.11;1746195;80;21154;-78
2020/12/21 06:54:26;;;;;;;89.00;45.17;;;;;;;-1.73;86.04;99126.40;1776416;80;21078;-78
2020/12/21 06:56:52;;;;;;;93.12;50.40;;;;;;;-1.73;85.61;99133.88;1746153;80;20990;-78
2020/12/21 06:59:23;;;;;;;85.83;42.65;;;;;;;-1.68;85.72;99134.69;1776571;80;21837;-82
2020/12/21 07:01:51;;;;;;;85.97;44.80;;;;;;;-1.63;85.64;99134.98;1776628;79;21154;-83
2020/12/21 07:04:21;;;;;;;83.05;43.98;;;;;;;-1.66;85.64;99125.21;1776589;80;21115;-82
2020/12/21 07:06:48;;;;;;;85.75;45.05;;;;;;;-1.69;85.22;99130.38;1776482;79;21038;-79
2020/12/21 07:09:16;;;;;;;79.07;39.10;;;;;;;-1.66;85.27;99134.52;1776604;80;21170;-80
2020/12/21 07:11:42;;;;;;;82.60;40.05;;;;;;;-1.63;85.42;99132.32;1776532;79;21111;-82
2020/12/21 07:14:11;;;;;;;86.67;42.58;;;;;;;-1.64;86.07;99128.02;1776594;80;21667;-80
2020/12/21 07:16:38;;;;;;;109.78;54.18;;;;;;;-1.59;85.98;99124.84;1747093;80;21801;-82
2020/12/21 07:19:03;;;;;;;121.47;58.38;;;;;;;-1.52;85.85;99138.59;1739428;80;20996;-83
2020/12/21 07:21:30;;;;;;;101.70;55.28;;;;;;;-1.52;85.65;99129.80;1746275;80;21011;-79
2020/12/21 07:23:57;;;;;;;133.05;68.78;;;;;;;-1.56;85.52;99133.78;1746245;80;21175;-79
2020/12/21 07:26:24;;;;;;;116.65;55.45;;;;;;;-1.54;85.56;99131.77;1776603;79;21122;-78
2020/12/21 07:28:50;;;;;;;97.33;50.95;;;;;;;-1.52;85.75;99127.13;1737182;80;21199;-83
2020/12/21 07:31:19;;;;;;;106.58;60.17;;;;;;;-1.49;85.49;99130.76;1776412;79;21059;-78
2020/12/21 07:33:53;;;;;;;127.95;68.33;;;;;;;-1.50;85.58;99121.13;1776657;80;21127;-82
2020/12/21 07:36:25;;;;;;;122.70;67.12;;;;;;;-1.40;85.65;99135.02;1776520;79;21193;-82
2020/12/21 07:41:35;;;;;;;130.40;69.32;;;;;;;-1.33;85.53;99125.34;1811441;77;22528;-77
2020/12/21 07:44:09;;;;;;;163.43;84.17;;;;;;;-1.29;85.61;99133.28;1752075;80;21181;-80
2020/12/21 07:47:03;;;;;;;135.10;73.15;;;;;;;-1.21;85.68;99128.41;1784629;79;21181;-78
2020/12/21 07:49:36;;;;;;;322.23;145.22;;;;;;;-1.16;85.52;99130.88;1752168;80;21087;-78
2020/12/21 07:52:04;;;;;;;159.70;85.55;;;;;;;-1.14;85.64;99132.84;1752258;80;21181;-78
2020/12/21 07:54:40;;;;;;;147.47;77.20;;;;;;;-1.15;85.82;99123.21;1752464;80;21035;-82
2020/12/21 07:57:07;;;;;;;125.30;68.40;;;;;;;-1.13;85.93;99123.03;1752335;80;21122;-82
2020/12/21 07:59:33;;;;;;;115.10;63.23;;;;;;;-1.09;85.65;99120.35;1784876;80;21248;-82
2020/12/21 08:02:02;;;;;;;194.28;86.47;;;;;;;-1.05;86.11;99124.80;1784874;80;20932;-77
2020/12/21 08:04:28;;;;;;;238.50;100.92;;;;;;;-1.01;85.99;99118.13;1784038;80;21589;-82
2020/12/21 08:07:06;;;;;;;226.85;101.02;;;;;;;-0.91;85.86;99125.36;1784960;79;20911;-81
2020/12/21 08:09:32;;;;;;;282.53;110.78;;;;;;;-0.78;85.62;99122.90;1748262;80;21205;-82
2020/12/21 08:11:59;;;;;;;257.15;103.32;;;;;;;-0.71;85.51;99123.84;1784923;79;21257;-82
2020/12/21 08:14:25;;;;;;;246.68;96.65;;;;;;;-0.71;85.82;99123.84;1752148;80;21201;-82
2020/12/21 08:16:51;;;;;;;203.18;95.10;;;;;;;-0.64;85.21;99123.95;1784918;79;21015;-78
2020/12/21 08:19:23;;;;;;;192.15;90.12;;;;;;;-0.61;85.25;99127.06;1784876;80;20983;-81
2020/12/21 08:21:49;;;;;;;223.87;104.78;;;;;;;-0.48;85.57;99130.95;1785007;79;21133;-83
2020/12/21 08:24:15;;;;;;;217.20;119.40;;;;;;;-0.49;85.85;99134.63;1784993;80;21282;-81
2020/12/21 08:26:41;;;;;;;242.85;134.60;;;;;;;-0.52;85.66;99136.30;1784823;79;21097;-79
2020/12/21 08:29:07;;;;;;;207.43;111.45;;;;;;;-0.44;85.35;99137.05;1784962;80;20939;-79
2020/12/21 08:31:43;;;;;;;190.43;96.17;;;;;;;-0.44;85.18;99133.06;1751954;80;21066;-79
2020/12/21 08:34:10;;;;;;;210.45;108.35;;;;;;;-0.40;85.04;99138.36;1752181;80;21142;-78
2020/12/21 08:36:39;;;;;;;208.28;112.32;;;;;;;-0.41;85.08;99138.55;1751926;80;21357;-78
2020/12/21 08:39:13;;;;;;;;;;;;;;;-0.33;85.69;99143.80;1729869;80;21434;-79
2020/12/21 08:41:50;;;;;;;331.57;140.30;;;;;;;-0.27;85.70;99143.55;1752153;80;20222;-78
2020/12/21 08:44:22;;;;;;;184.52;96.80;;;;;;;-0.18;85.60;99137.94;1784646;80;21611;-82
2020/12/21 08:46:50;;;;;;;164.40;89.32;;;;;;;-0.07;85.47;99133.51;1784959;79;21091;-79
2020/12/21 08:49:16;;;;;;;181.20;94.63;;;;;;;-0.01;85.39;99130.59;1785160;80;21179;-82
2020/12/21 08:51:42;;;;;;;184.52;98.45;;;;;;;0.08;85.66;99134.81;1784532;79;21082;-81
2020/12/21 08:54:08;;;;;;;169.25;94.20;;;;;;;0.23;85.68;99132.13;1784376;80;20896;-78
2020/12/21 08:56:34;;;;;;;162.45;82.33;;;;;;;0.21;85.72;99126.17;1784312;79;20959;-78
2020/12/21 08:59:00;;;;;;;176.65;88.90;;;;;;;0.19;85.35;99127.69;1784352;80;21034;-82
2020/12/21 09:01:25;;;;;;;169.40;89.50;;;;;;;0.29;85.12;99128.73;1784283;79;21208;-78
2020/12/21 09:03:51;;;;;;;185.80;98.50;;;;;;;0.28;85.02;99129.75;1784284;80;21019;-82
2020/12/21 09:06:22;;;;;;;211.12;108.12;;;;;;;0.33;85.31;99131.33;1751456;80;21577;-82
2020/12/21 09:08:49;;;;;;;224.42;121.37;;;;;;;0.40;85.52;99134.08;1784349;80;21130;-79
2020/12/21 09:11:20;;;;;;;244.70;134.50;;;;;;;0.47;85.43;99126.98;1751867;80;21185;-81
2020/12/21 09:13:47;;;;;;;196.63;101.42;;;;;;;0.56;85.32;99124.02;1783287;80;21241;-80
2020/12/21 09:16:18;;;;;;;243.37;132.15;;;;;;;0.66;85.34;99130.38;1784216;79;21046;-77
2020/12/21 09:18:45;;;;;;;187.20;105.32;;;;;;;0.80;85.55;99124.68;1784347;80;21114;-82
2020/12/21 09:21:22;;;;;;;185.48;100.67;;;;;;;0.88;85.43;99123.22;1784306;79;21047;-82
2020/12/21 09:23:52;;;;;;;195.07;107.85;;;;;;;0.88;85.22;99117.88;1784314;80;21094;-78
2020/12/21 09:26:18;;;;;;;193.75;105.87;;;;;;;0.91;85.17;99112.66;1784230;79;21535;-81
2020/12/21 09:28:45;;;;;;;198.05;108.97;;;;;;;0.95;85.19;99111.28;1751069;80;21118;-82
2020/12/21 09:31:12;;;;;;;347.93;148.78;;;;;;;0.86;85.57;99098.58;1784227;79;21480;-78
2020/12/21 09:33:37;;;;;;;255.32;120.25;;;;;;;0.91;85.50;99096.14;1751374;80;21204;-78
2020/12/21 09:36:04;;;;;;;225.78;110.83;;;;;;;1.05;85.40;99101.92;1784247;79;21008;-78
2020/12/21 09:38:30;;;;;;;170.05;93.70;;;;;;;1.20;85.36;99103.19;1718408;80;21721;-82
2020/12/21 09:40:56;;;;;;;140.30;76.97;;;;;;;1.25;85.19;99101.25;1751198;80;21110;-78
2020/12/21 09:43:22;;;;;;;126.58;70.62;;;;;;;1.24;85.09;99087.59;1784280;80;21430;-82
2020/12/21 09:45:48;;;;;;;121.85;64.62;;;;;;;1.25;84.99;99095.92;1751697;80;21022;-78
2020/12/21 09:48:14;;;;;;;121.22;63.42;;;;;;;1.22;84.82;99085.63;1784284;80;20895;-82
2020/12/21 09:50:40;;;;;;;114.70;67.78;;;;;;;1.23;85.10;99085.95;1784365;79;21570;-78
2020/12/21 09:53:06;;;;;;;134.27;79.67;;;;;;;1.26;85.17;99082.88;1784267;80;21134;-82
2020/12/21 09:55:32;;;;;;;142.22;77.72;;;;;;;1.25;85.27;99083.39;1784225;79;20971;-78
2020/12/21 09:58:00;;;;;;;113.62;66.72;;;;;;;1.29;85.16;99082.51;1784278;80;21632;-82
2020/12/21 10:00:28;;;;;;;114.40;65.92;;;;;;;1.32;84.85;99076.77;1784445;79;21178;-78
2020/12/21 10:02:54;;;;;;;87.35;51.75;;;;;;;1.37;84.79;99075.69;1784216;80;21534;-78
2020/12/21 10:05:20;;;;;;;116.12;61.70;;;;;;;1.47;84.71;99075.34;1784160;79;20896;-77
2020/12/21 10:07:46;;;;;;;88.07;49.65;;;;;;;1.52;84.83;99064.88;1751784;80;21554;-82
2020/12/21 10:10:12;;;;;;;85.07;51.02;;;;;;;1.55;84.91;99066.66;1784179;79;21014;-77
2020/12/21 10:12:38;;;;;;;102.32;59.08;;;;;;;1.55;84.95;99065.84;1784341;80;21244;-77
2020/12/21 10:15:04;;;;;;;99.00;53.65;;;;;;;1.63;85.19;99067.02;1784214;79;21448;-77
2020/12/21 10:17:30;;;;;;;116.80;64.40;;;;;;;1.71;84.96;99064.19;1784226;80;20872;-77
2020/12/21 10:19:56;;;;;;;94.15;52.17;;;;;;;1.85;85.26;99063.21;1784226;79;21601;-81
2020/12/21 10:22:21;;;;;;;92.75;53.50;;;;;;;2.01;85.10;99063.39;1784279;80;21018;-77
2020/12/21 10:24:47;;;;;;;95.97;53.28;;;;;;;2.14;84.70;99062.64;1784294;79;20980;-77
2020/12/21 10:27:13;;;;;;;99.28;57.73;;;;;;;2.31;84.70;99061.26;1784272;80;21448;-81
2020/12/21 10:29:39;;;;;;;91.50;54.23;;;;;;;2.42;83.98;99054.48;1784123;79;20899;-77
2020/12/21 10:32:05;;;;;;;88.30;51.25;;;;;;;2.52;84.04;99053.06;1784161;80;21597;-77
2020/12/21 10:34:31;;;;;;;88.60;52.58;;;;;;;2.66;84.28;99051.25;1784175;80;20951;-77
2020/12/21 10:36:57;;;;;;;88.97;52.17;;;;;;;2.76;84.11;99046.83;1784190;79;21091;-77
2020/12/21 10:39:23;;;;;;;90.32;54.98;;;;;;;2.90;84.08;99048.98;1784250;80;21252;-81
2020/12/21 10:41:49;;;;;;;98.25;58.60;;;;;;;3.04;83.95;99047.97;1783945;79;21053;-80
2020/12/21 10:44:16;;;;;;;103.45;59.63;;;;;;;3.12;83.69;99039.73;1784275;80;21027;-79
2020/12/21 10:46:42;;;;;;;89.60;58.10;;;;;;;3.19;83.65;99029.02;1784118;79;21122;-77
2020/12/21 10:49:08;;;;;;;130.27;76.92;;;;;;;3.25;83.77;99033.04;1784244;80;21314;-77
2020/12/21 10:51:35;;;;;;;134.45;76.00;;;;;;;3.35;83.83;99034.77;1751495;80;21234;-81
2020/12/21 10:54:00;;;;;;;149.53;83.47;;;;;;;3.46;83.62;99032.48;1751410;80;21205;-81
2020/12/21 10:56:27;;;;;;;123.92;67.25;;;;;;;3.52;83.11;99028.45;1784207;79;21050;-81
2020/12/21 10:58:53;;;;;;;104.60;60.67;;;;;;;3.59;83.16;99023.91;1784228;80;21630;-81
2020/12/21 11:01:19;;;;;;;86.67;50.45;;;;;;;3.61;83.40;99023.69;1784177;79;21106;-77
2020/12/21 11:03:45;;;;;;;71.15;42.38;;;;;;;3.70;83.14;99026.97;1751595;80;21122;-77
2020/12/21 11:06:11;;;;;;;84.00;49.30;;;;;;;3.75;82.97;99023.12;1751142;80;21061;-77
2020/12/21 11:08:38;;;;;;;70.67;39.70;;;;;;;3.76;83.17;99020.73;1751738;80;21190;-81
2020/12/21 11:11:04;;;;;;;73.20;45.33;;;;;;;3.83;83.39;99013.50;1784210;79;21066;-77
2020/12/21 11:13:31;;;;;;;78.67;45.55;;;;;;;3.85;83.28;99015.47;1751506;80;21165;-78
2020/12/21 11:15:57;;;;;;;82.65;48.20;;;;;;;3.97;83.67;99017.78;1784185;79;21547;-77
2020/12/21 11:18:23;;;;;;;86.17;51.85;;;;;;;4.08;83.53;99020.31;1784198;80;20928;-77
2020/12/21 11:20:49;;;;;;;76.28;46.30;;;;;;;4.14;83.24;99013.58;1784089;79;20959;-81